Flight Track Log - Related Links

Times and Time Zones

All times are in EDT time to prevent confusion due to time zone crossing. See the DAL268 flight status page for this flight to view local times or setup timezone preferences in your user account.


Time Position Orientation Groundspeed Altitude Reporting Facility
EDT Latitude Longitude Course Direction KTS MPH feet Rate Location/Type
Tue 11:31:22 PM 40.6510 -73.7560 30° Northeast 170 196 300  Level FlightAware ADS-B
Tue 11:31:37 PM 40.6590 -73.7470 40° Northeast 171 197 700 1,440 Climbing FlightAware ADS-B
Tue 11:31:47 PM 40.6630 -73.7370 62° Northeast 169 194 900 1,440 Climbing FlightAware ADS-B
Tue 11:32:02 PM 40.6650 -73.7210 81° East 177 204 1,300 1,067 Climbing FlightAware ADS-B
Tue 11:32:32 PM 40.6670 -73.6870 86° East 217 250 1,700 840 Climbing FlightAware ADS-B
Tue 11:32:52 PM 40.6680 -73.6590 87° East 230 265 2,000 1,091 Climbing FlightAware ADS-B
Tue 11:33:27 PM 40.6630 -73.6060 97° East 255 293 2,700 1,400 Climbing FlightAware ADS-B
Tue 11:33:52 PM 40.6560 -73.5660 103° East 269 310 3,400 2,073 Climbing FlightAware ADS-B
Tue 11:34:22 PM 40.6480 -73.5180 102° East 272 313 4,600 2,100 Climbing FlightAware ADS-B
Tue 11:34:52 PM 40.6400 -73.4720 103° East 280 322 5,500 1,950 Climbing FlightAware ADS-B
Tue 11:35:02 PM 40.6370 -73.4560 104° East 281 323 5,900 2,250 Climbing FlightAware ADS-B
Tue 11:35:32 PM 40.6270 -73.4050 104° East 285 328 7,000 2,000 Climbing FlightAware ADS-B
Tue 11:35:47 PM 40.6220 -73.3790 104° East 291 335 7,400 1,950 Climbing FlightAware ADS-B
Tue 11:36:12 PM 40.6140 -73.3330 103° East 297 342 8,300 2,270 Climbing FlightAware ADS-B
Tue 11:36:24 PM 40.6090 -73.3095 106° East 296 341 8,800 2,357 Climbing FlightAware ADS-B
Tue 11:36:40 PM 40.6037 -73.2817 104° East 299 344 9,400 2,129 Climbing FlightAware ADS-B
Tue 11:36:55 PM 40.5985 -73.2542 104° East 301 346 9,900 1,875 Climbing FlightAware ADS-B
Tue 11:37:28 PM 40.5871 -73.1960 104° East 312 359 10,900 1,429 Climbing FlightAware ADS-B
Tue 11:37:58 PM 40.5771 -73.1383 103° East 334 384 11,400 952 Climbing FlightAware ADS-B
Tue 11:38:31 PM 40.5649 -73.0712 103° East 360 414 11,900 952 Climbing FlightAware ADS-B
Tue 11:39:01 PM 40.5531 -73.0050 103° East 383 441 12,400 1,300 Climbing FlightAware ADS-B
Tue 11:39:31 PM 40.5403 -72.9338 103° East 398 458 13,200 1,770 Climbing FlightAware ADS-B
Tue 11:40:02 PM 40.5274 -72.8603 103° East 408 470 14,200 2,000 Climbing FlightAware ADS-B
Tue 11:40:34 PM 40.5137 -72.7832 103° East 415 478 15,300 2,000 Climbing FlightAware ADS-B
Tue 11:41:05 PM 40.4993 -72.7046 104° East 423 487 16,300 1,935 Climbing FlightAware ADS-B
Tue 11:41:36 PM 40.4864 -72.6284 103° East 428 493 17,300 1,959 Climbing FlightAware ADS-B
Tue 11:41:54 PM 40.4780 -72.5814 103° East 433 498 17,900 1,680 Climbing FlightAware ADS-B
Tue 11:42:01 PM 40.4761 -72.5644 98° East 438 504 18,000 1,500 Climbing FlightAware ADS-B
Tue 11:42:18 PM 40.4782 -72.5182 87° East 445 512 18,500 1,886 Climbing FlightAware ADS-B
Tue 11:42:36 PM 40.4897 -72.4699 73° East 454 522 19,100 1,862 Climbing FlightAware ADS-B
Tue 11:42:47 PM 40.5018 -72.4441 58° Northeast 459 528 19,400 1,607 Climbing FlightAware ADS-B
Tue 11:43:32 PM 40.5590 -72.3500 51° Northeast 467 537 20,600 1,698 Climbing FlightAware ADS-B
Tue 11:43:40 PM 40.5730 -72.3281 50° Northeast 461 531 20,900 1,500 Climbing FlightAware ADS-B
Tue 11:44:12 PM 40.6140 -72.2630 50° Northeast 475 547 21,600 1,371 Climbing FlightAware ADS-B
Tue 11:44:15 PM 40.6215 -72.2508 51° Northeast 475 547 21,700 1,548 Climbing FlightAware ADS-B
Tue 11:44:43 PM 40.6610 -72.1878 50° Northeast 481 554 22,400 1,421 Climbing FlightAware ADS-B
Tue 11:45:31 PM 40.7293 -72.0768 51° Northeast 485 558 23,500 1,395 Climbing FlightAware ADS-B
Tue 11:46:09 PM 40.7839 -71.9879 51° Northeast 491 565 24,400 1,360 Climbing FlightAware ADS-B
Tue 11:46:46 PM 40.8370 -71.9009 51° Northeast 499 574 25,200 1,333 Climbing FlightAware ADS-B
Tue 11:47:21 PM 40.8877 -71.8179 51° Northeast 503 579 26,000 1,364 Climbing FlightAware ADS-B
Tue 11:47:52 PM 40.9334 -71.7426 51° Northeast 506 582 26,700 1,182 Climbing FlightAware ADS-B
Tue 11:48:27 PM 40.9800 -71.6650 51° Northeast 509 586 27,300 1,200 Climbing FlightAware ADS-B
Tue 11:49:07 PM 41.0360 -71.5730 51° Northeast 508 585 28,200 1,467 Climbing FlightAware ADS-B
Tue 11:49:57 PM 40.8360 -71.9020 231° Southwest 502 578 29,500 1,516 Climbing FlightAware ADS-B
Tue 11:50:42 PM 41.1740 -71.3470 51° Northeast 495 570 30,600 1,000 Climbing FlightAware ADS-B
Tue 11:51:27 PM 41.2340 -71.2480 51° Northeast 495 570 31,000 282 Climbing FlightAware ADS-B
Tue 11:52:07 PM 41.2980 -71.1420 51° Northeast 492 566 31,000  Level FlightAware ADS-B
Tue 11:52:52 PM 41.3610 -71.0360 52° Northeast 491 565 31,000  Level FlightAware ADS-B
Tue 11:53:32 PM 41.4040 -70.9640 51° Northeast 493 567 31,000  Level FlightAware ADS-B
Tue 11:54:02 PM 41.4600 -70.8690 52° Northeast 494 568 31,000  Level FlightAware ADS-B
Tue 11:54:57 PM 41.5380 -70.7380 51° Northeast 493 567 31,000  Level FlightAware ADS-B
Tue 11:55:32 PM 41.5900 -70.6510 51° Northeast 499 574 31,000  Level FlightAware ADS-B
Tue 11:56:27 PM 41.6650 -70.5230 52° Northeast 497 572 31,000  Level FlightAware ADS-B
Tue 11:57:12 PM 41.7310 -70.4090 52° Northeast 504 580 31,000  Level FlightAware ADS-B
Tue 11:57:47 PM 41.7800 -70.3230 53° Northeast 503 579 31,000  Level FlightAware ADS-B
Tue 11:58:52 PM 41.8730 -70.1600 53° Northeast 503 579 31,000  Level FlightAware ADS-B
Tue 11:59:37 PM 41.9340 -70.0520 53° Northeast 504 580 31,000  Level FlightAware ADS-B
Wed 12:00:17 AM 41.9900 -69.9510 53° Northeast 504 580 31,000  Level FlightAware ADS-B
Wed 12:00:57 AM 42.0490 -69.8470 53° Northeast 505 581 31,000  Level FlightAware ADS-B
Wed 12:01:42 AM 42.1120 -69.7360 53° Northeast 505 581 31,000  Level FlightAware ADS-B
Wed 12:02:22 AM 42.1700 -69.6320 53° Northeast 505 581 31,000  Level FlightAware ADS-B
Wed 12:03:02 AM 42.2260 -69.5310 53° Northeast 505 581 31,000  Level FlightAware ADS-B
Wed 12:03:47 AM 42.2890 -69.4180 53° Northeast 499 574 31,000  Level FlightAware ADS-B
Wed 12:04:32 AM 42.3480 -69.3110 53° Northeast 499 574 31,000  Level FlightAware ADS-B
Wed 12:05:12 AM 42.4060 -69.2060 53° Northeast 500 575 31,000  Level FlightAware ADS-B
Wed 12:05:52 AM 42.4620 -69.1040 53° Northeast 501 577 31,000  Level FlightAware ADS-B
Wed 12:06:27 AM 42.5090 -69.0190 53° Northeast 501 577 31,000  Level FlightAware ADS-B
Wed 12:07:07 AM 42.5660 -68.9150 53° Northeast 500 575 31,000  Level FlightAware ADS-B
Wed 12:07:52 AM 42.6250 -68.8050 54° Northeast 500 575 31,000  Level FlightAware ADS-B
Wed 12:08:42 AM 42.6830 -68.6970 54° Northeast 500 575 31,000  Level FlightAware ADS-B
Wed 12:09:22 AM 42.7290 -68.6100 54° Northeast 500 575 31,000  Level FlightAware ADS-B
Wed 12:10:07 AM 42.8150 -68.4520 53° Northeast 500 575 31,000  Level FlightAware ADS-B
Wed 12:10:47 AM 42.8680 -68.3540 54° Northeast 501 577 31,000  Level FlightAware ADS-B
Wed 12:11:32 AM 42.9310 -68.2350 54° Northeast 500 575 31,000  Level FlightAware ADS-B
Wed 12:12:12 AM 42.9870 -68.1280 54° Northeast 501 577 31,000  Level FlightAware ADS-B
Wed 12:13:07 AM 43.0540 -68.0000 54° Northeast 500 575 31,000  Level FlightAware ADS-B
Wed 12:13:47 AM 43.0990 -67.9120 55° Northeast 500 575 31,000  Level FlightAware ADS-B
Wed 12:14:32 AM 43.1790 -67.7640 53° Northeast 502 578 31,000  Level FlightAware ADS-B
Wed 12:15:12 AM 43.2330 -67.6610 54° Northeast 500 575 31,000  Level FlightAware ADS-B
Wed 12:15:57 AM 43.2940 -67.5450 54° Northeast 500 575 31,000  Level FlightAware ADS-B
Wed 12:16:37 AM 43.3490 -67.4410 54° Northeast 500 575 31,000  Level FlightAware ADS-B
Wed 12:17:22 AM 43.4090 -67.3240 55° Northeast 501 577 31,000  Level FlightAware ADS-B
Wed 12:18:02 AM 43.4630 -67.2170 55° Northeast 496 571 31,000  Level FlightAware ADS-B
Wed 12:18:42 AM 43.5170 -67.1110 55° Northeast 497 572 31,000  Level FlightAware ADS-B
Wed 12:19:27 AM 43.5740 -66.9980 55° Northeast 496 571 31,000  Level FlightAware ADS-B
Wed 12:20:07 AM 43.6290 -66.8930 54° Northeast 499 574 31,000  Level FlightAware ADS-B
Wed 12:20:52 AM 43.6890 -66.7780 54° Northeast 498 573 31,000  Level FlightAware ADS-B
Wed 12:21:32 AM 43.7440 -66.6730 54° Northeast 499 574 31,000  Level FlightAware ADS-B
Wed 12:22:12 AM 43.7970 -66.5700 54° Northeast 500 575 31,000  Level FlightAware ADS-B
Wed 12:22:52 AM 43.8520 -66.4640 54° Northeast 500 575 31,000  Level FlightAware ADS-B
Wed 12:23:37 AM 43.9120 -66.3480 54° Northeast 500 575 31,000  Level FlightAware ADS-B
Wed 12:24:22 AM 43.9720 -66.2310 55° Northeast 498 573 31,000  Level FlightAware ADS-B
Wed 12:25:02 AM 44.0260 -66.1270 54° Northeast 501 577 31,000  Level FlightAware ADS-B
Wed 12:25:42 AM 44.0820 -66.0180 54° Northeast 501 577 31,000  Level FlightAware ADS-B
Wed 12:26:42 AM 44.1610 -65.8610 55° Northeast 502 578 31,000  Level FlightAware ADS-B
Wed 12:27:22 AM 44.2130 -65.7600 54° Northeast 502 578 31,000  Level FlightAware ADS-B
Wed 12:28:02 AM 44.2690 -65.6490 55° Northeast 503 579 31,000  Level FlightAware ADS-B
Wed 12:28:57 AM 44.3430 -65.5030 55° Northeast 503 579 31,000  Level FlightAware ADS-B
Wed 12:30:07 AM 44.4360 -65.3180 55° Northeast 502 578 31,000  Level FlightAware ADS-B
Wed 12:30:42 AM 44.4830 -65.2220 56° Northeast 502 578 31,000  Level FlightAware ADS-B
Wed 12:31:32 AM 44.5460 -65.0960 55° Northeast 498 573 31,000  Level FlightAware ADS-B
Wed 12:32:32 AM 44.6270 -64.9310 55° Northeast 497 572 31,000  Level FlightAware ADS-B
Wed 12:33:07 AM 44.6750 -64.8340 55° Northeast 497 572 31,000  Level FlightAware ADS-B
Wed 12:33:52 AM 44.7330 -64.7160 55° Northeast 495 570 31,000  Level FlightAware ADS-B
Wed 12:34:37 AM 44.7930 -64.5940 55° Northeast 500 575 31,000  Level FlightAware ADS-B
Wed 12:35:17 AM 44.8440 -64.4890 56° Northeast 501 577 31,000  Level FlightAware ADS-B
Wed 12:36:02 AM 44.9050 -64.3630 56° Northeast 501 577 31,000  Level FlightAware ADS-B
Wed 12:36:42 AM 44.9570 -64.2540 56° Northeast 502 578 31,000  Level FlightAware ADS-B
Wed 12:37:22 AM 45.0090 -64.1460 56° Northeast 504 580 31,000  Level FlightAware ADS-B
Wed 12:38:17 AM 45.0770 -64.0040 56° Northeast 505 581 31,000  Level FlightAware ADS-B
Wed 12:39:02 AM 45.1350 -63.8810 56° Northeast 507 583 31,000  Level FlightAware ADS-B
Wed 12:39:42 AM 45.1870 -63.7700 56° Northeast 508 585 31,000  Level FlightAware ADS-B
Wed 12:40:27 AM 45.2450 -63.6460 56° Northeast 510 587 31,000  Level FlightAware ADS-B
Wed 12:41:07 AM 45.2980 -63.5350 56° Northeast 511 588 31,000  Level FlightAware ADS-B
Wed 12:41:52 AM 45.3570 -63.4080 56° Northeast 512 589 31,000  Level FlightAware ADS-B
Wed 12:42:32 AM 45.4100 -63.2960 56° Northeast 511 588 31,000  Level FlightAware ADS-B
Wed 12:43:12 AM 45.4620 -63.1850 56° Northeast 511 588 31,000  Level FlightAware ADS-B
Wed 12:43:57 AM 45.5220 -63.0570 56° Northeast 512 589 31,000  Level FlightAware ADS-B
Wed 12:44:42 AM 45.5770 -62.9410 56° Northeast 513 590 31,000  Level FlightAware ADS-B
Wed 12:45:32 AM 45.6330 -62.8220 56° Northeast 513 590 31,000  Level FlightAware ADS-B
Wed 12:46:12 AM 45.6790 -62.7260 56° Northeast 513 590 31,000  Level FlightAware ADS-B
Wed 12:46:52 AM 45.7240 -62.6300 56° Northeast 513 590 31,000  Level FlightAware ADS-B
Wed 12:47:42 AM 45.7800 -62.5100 56° Northeast 513 590 31,000  Level FlightAware ADS-B
Wed 12:48:22 AM 45.8250 -62.4140 56° Northeast 513 590 31,000  Level FlightAware ADS-B
Wed 12:49:02 AM 45.8700 -62.3180 56° Northeast 513 590 31,000  Level FlightAware ADS-B
Wed 12:49:42 AM 45.9150 -62.2220 56° Northeast 513 590 31,000  Level FlightAware ADS-B
Wed 12:50:22 AM 45.9610 -62.1260 55° Northeast 513 590 31,000  Level FlightAware ADS-B
Wed 12:51:12 AM 46.0940 -61.7960 60° Northeast 523 602 31,000  Level FlightAware ADS-B
Wed 12:51:52 AM 46.1460 -61.6780 58° Northeast 525 604 31,000  Level FlightAware ADS-B
Wed 12:52:32 AM 46.1970 -61.5600 58° Northeast 526 605 31,000  Level FlightAware ADS-B
Wed 12:53:17 AM 46.2540 -61.4280 58° Northeast 529 609 31,000  Level FlightAware ADS-B
Wed 12:53:57 AM 46.3060 -61.3070 58° Northeast 531 611 31,000  Level FlightAware ADS-B
Wed 12:54:37 AM 46.3590 -61.1860 58° Northeast 535 616 31,000  Level FlightAware ADS-B
Wed 12:55:22 AM 46.4190 -61.0460 58° Northeast 538 619 31,000  Level FlightAware ADS-B
Wed 12:56:02 AM 46.4720 -60.9240 58° Northeast 540 621 31,000  Level FlightAware ADS-B
Wed 12:56:47 AM 46.5300 -60.7870 58° Northeast 543 625 31,000  Level FlightAware ADS-B
Wed 12:57:27 AM 46.5840 -60.6620 58° Northeast 546 628 31,000  Level FlightAware ADS-B
Wed 12:58:07 AM 46.6370 -60.5370 58° Northeast 545 627 31,000  Level FlightAware ADS-B
Wed 12:58:52 AM 46.6970 -60.3950 58° Northeast 542 624 31,000  Level FlightAware ADS-B
Wed 12:59:32 AM 46.7470 -60.2760 58° Northeast 540 621 31,000 424 Level FlightAware ADS-B
Wed 01:00:17 AM 46.8090 -60.1300 58° Northeast 535 616 31,600 918 Climbing FlightAware ADS-B
Wed 01:00:57 AM 46.8610 -60.0090 58° Northeast 537 618 32,300 900 Climbing FlightAware ADS-B
Wed 01:01:37 AM 46.9120 -59.8830 59° Northeast 545 627 32,800 706 Climbing FlightAware ADS-B
Wed 01:02:22 AM 46.9690 -59.7430 59° Northeast 550 633 33,300 635 Climbing FlightAware ADS-B
Wed 01:03:02 AM 47.0210 -59.6120 60° Northeast 554 638 33,700 494 Climbing FlightAware ADS-B
Wed 01:03:47 AM 47.0800 -59.4630 60° Northeast 551 634 34,000 212 Climbing FlightAware ADS-B
Wed 01:04:27 AM 47.1280 -59.3410 60° Northeast 548 631 34,000  Level FlightAware ADS-B
Wed 01:05:07 AM 47.1810 -59.2080 60° Northeast 548 631 34,000  Level FlightAware ADS-B
Wed 01:05:52 AM 47.2380 -59.0660 59° Northeast 546 628 34,000  Level FlightAware ADS-B
Wed 01:06:32 AM 47.2850 -58.9490 59° Northeast 546 628 34,000  Level FlightAware ADS-B
Wed 01:07:12 AM 47.3390 -58.8130 60° Northeast 546 628 34,000  Level FlightAware ADS-B
Wed 01:07:57 AM 47.3970 -58.6650 60° Northeast 549 632 34,000  Level FlightAware ADS-B
Wed 01:08:37 AM 47.4460 -58.5410 60° Northeast 551 634 34,000  Level FlightAware ADS-B
Wed 01:09:22 AM 47.5080 -58.3850 59° Northeast 552 635 34,000  Level FlightAware ADS-B
Wed 01:10:02 AM 47.5590 -58.2530 60° Northeast 552 635 34,000  Level FlightAware ADS-B
Wed 01:10:42 AM 47.6110 -58.1210 60° Northeast 553 636 34,000  Level FlightAware ADS-B
Wed 01:11:27 AM 47.6660 -57.9780 60° Northeast 554 638 34,000  Level FlightAware ADS-B
Wed 01:12:07 AM 47.7190 -57.8420 60° Northeast 554 638 34,000  Level FlightAware ADS-B
Wed 01:12:52 AM 47.7760 -57.6940 60° Northeast 554 638 34,000  Level FlightAware ADS-B
Wed 01:13:32 AM 47.8260 -57.5620 61° Northeast 556 640 34,000  Level FlightAware ADS-B
Wed 01:14:17 AM 47.8830 -57.4120 60° Northeast 554 638 34,000  Level FlightAware ADS-B
Wed 01:14:57 AM 47.9340 -57.2780 60° Northeast 555 639 34,000  Level FlightAware ADS-B
Wed 01:15:42 AM 47.9880 -57.1350 61° Northeast 556 640 34,000  Level FlightAware ADS-B
Wed 01:16:22 AM 48.0400 -56.9980 60° Northeast 556 640 34,000  Level FlightAware ADS-B
Wed 01:17:02 AM 48.0910 -56.8610 61° Northeast 558 642 34,000  Level FlightAware ADS-B
Wed 01:17:42 AM 48.1400 -56.7250 62° Northeast 559 643 34,000  Level FlightAware ADS-B
Wed 01:18:27 AM 48.1930 -56.5800 61° Northeast 559 643 34,000  Level FlightAware ADS-B
Wed 01:19:12 AM 48.2470 -56.4190 63° Northeast 560 644 34,000  Level FlightAware ADS-B
Wed 01:19:52 AM 48.2910 -56.2770 65° Northeast 561 646 34,000  Level FlightAware ADS-B
Wed 01:20:32 AM 48.3340 -56.1370 65° Northeast 563 648 34,000  Level FlightAware ADS-B
Wed 01:21:17 AM 48.3820 -55.9810 65° Northeast 564 649 34,000  Level FlightAware ADS-B
Wed 01:21:57 AM 48.4290 -55.8320 65° Northeast 565 650 34,000  Level FlightAware ADS-B
Wed 01:22:37 AM 48.4740 -55.6880 65° Northeast 565 650 34,000  Level FlightAware ADS-B
Wed 01:23:22 AM 48.5240 -55.5280 65° Northeast 565 650 34,000  Level FlightAware ADS-B
Wed 01:24:02 AM 48.5670 -55.3890 65° Northeast 566 651 34,000  Level FlightAware ADS-B
Wed 01:24:47 AM 48.6180 -55.2230 65° Northeast 566 651 34,000  Level FlightAware ADS-B
Wed 01:25:27 AM 48.6620 -55.0790 65° Northeast 564 649 34,000  Level FlightAware ADS-B
Wed 01:26:07 AM 48.7040 -54.9360 66° East 566 651 34,000  Level FlightAware ADS-B
Wed 01:26:52 AM 48.7520 -54.7760 65° Northeast 567 652 34,000  Level FlightAware ADS-B
Wed 01:27:32 AM 48.7960 -54.6270 66° East 568 654 34,000  Level FlightAware ADS-B
Wed 01:28:12 AM 48.8360 -54.4900 66° East 567 652 34,000  Level FlightAware ADS-B
Wed 01:28:57 AM 48.8860 -54.3190 66° East 566 651 34,000  Level FlightAware ADS-B
Wed 01:29:37 AM 48.9270 -54.1750 67° East 564 649 34,000  Level FlightAware ADS-B
Wed 01:30:22 AM 48.9740 -54.0130 66° East 562 647 34,000  Level FlightAware ADS-B
Wed 01:31:02 AM 49.0160 -53.8690 66° East 560 644 34,000  Level FlightAware ADS-B
Wed 01:31:42 AM 49.0580 -53.7200 67° East 559 643 34,000  Level FlightAware ADS-B
Wed 01:32:27 AM 49.1040 -53.5580 67° East 558 642 34,000  Level FlightAware ADS-B
Wed 01:33:07 AM 49.1440 -53.4140 67° East 558 642 34,000  Level FlightAware ADS-B
Wed 01:33:52 AM 49.1890 -53.2500 67° East 557 641 34,000  Level FlightAware ADS-B
Wed 01:34:32 AM 49.2290 -53.1050 67° East 558 642 34,000  Level FlightAware ADS-B
Wed 01:35:12 AM 49.2690 -52.9590 67° East 558 642 34,000  Level FlightAware ADS-B
Wed 01:35:57 AM 49.3120 -52.7990 68° East 558 642 34,000  Level FlightAware ADS-B
Wed 01:36:37 AM 49.3520 -52.6510 67° East 559 643 34,000  Level FlightAware ADS-B
Wed 01:37:17 AM 49.3910 -52.5030 68° East 559 643 34,000  Level FlightAware ADS-B
Wed 01:38:02 AM 49.4310 -52.3530 68° East 558 642 34,000  Level FlightAware ADS-B
Wed 01:38:42 AM 49.4700 -52.2030 68° East 558 642 34,000  Level FlightAware ADS-B
Wed 01:39:27 AM 49.5170 -52.0240 68° East 556 640 34,000  Level FlightAware ADS-B
Wed 01:40:07 AM 49.5540 -51.8800 68° East 556 640 34,000  Level FlightAware ADS-B
Wed 01:40:47 AM 49.5910 -51.7350 68° East 556 640 34,000  Level FlightAware ADS-B
Wed 01:41:32 AM 49.6290 -51.5910 68° East 556 640 34,000  Level FlightAware ADS-B
Wed 01:42:12 AM 49.6620 -51.4660 68° East 556 640 34,000  Level FlightAware ADS-B
Wed 01:42:52 AM 49.6940 -51.3410 68° East 556 640 34,000  Level FlightAware ADS-B
Wed 01:43:42 AM 49.7350 -51.1840 68° East 556 640 34,000  Level FlightAware ADS-B
Wed 01:44:22 AM 49.7680 -51.0590 68° East 556 640 34,000  Level FlightAware ADS-B
Wed 01:45:02 AM 49.8010 -50.9330 68° East 556 640 34,000  Level FlightAware ADS-B
Wed 01:45:42 AM 49.8330 -50.8070 68° East 556 640 34,000  Level FlightAware ADS-B
Wed 01:46:22 AM 49.8660 -50.6820 68° East 556 640 34,000  Level FlightAware ADS-B
Wed 01:47:02 AM 49.8990 -50.5560 68° East 556 640 34,000  Level FlightAware ADS-B
Wed 01:47:52 AM 49.9400 -50.3980 68° East 556 640 34,000  Level FlightAware ADS-B
Wed 01:48:32 AM 49.9730 -50.2720 68° East 556 640 34,000  Level FlightAware ADS-B
Wed 01:49:00 AM 50.0000 -50.0000 77° East 538 619 34,000  Level ETMS Enhanced Traffic Management System
Wed 01:49:12 AM 50.0050 -50.1460 68° East 556 640 34,000  Level FlightAware ADS-B
Wed 01:49:43 AM 50.0167 -49.7000 77° East 540 621 34,000  Level Gander Center
Wed 01:49:52 AM 50.0380 -50.0200 68° East 556 640 34,000  Level FlightAware ADS-B
Wed 01:50:01 AM 50.0333 -49.6167 73° East 550 633 34,000  Level Gander Center
Wed 01:50:42 AM 50.0790 -49.8620 68° East 556 640 34,000  Level FlightAware ADS-B
Wed 01:50:43 AM 50.0500 -49.4833 79° East 550 633 34,000  Level Gander Center
Wed 01:51:43 AM 50.0833 -49.2333 78° East 530 610 34,000  Level Gander Center
Wed 01:52:43 AM 50.1167 -49.0167 76° East 550 633 34,000  Level Gander Center
Wed 01:53:43 AM 50.1500 -48.7667 78° East 540 621 34,000  Level Gander Center
Wed 01:54:43 AM 50.1667 -48.5500 83° East 550 633 34,000  Level Gander Center
Wed 01:55:43 AM 50.2167 -48.3000 73° East 550 633 34,000  Level Gander Center
Wed 01:56:01 AM 50.2167 -48.2500 90° East 540 621 34,000  Level Gander Center
Wed 01:56:43 AM 50.2333 -48.0833 81° East 550 633 34,000  Level Gander Center
Wed 01:57:43 AM 50.2667 -47.8667 76° East 540 621 34,000  Level Gander Center
Wed 02:00:00 AM 50.3226 -47.4251 79° East  Level FlightAware Approximate
Wed 02:07:00 AM 50.5067 -45.8588 79° East  Level FlightAware Approximate
Wed 02:08:00 AM 50.5312 -45.6340 80° East  Level FlightAware Approximate
Wed 02:09:00 AM 50.5554 -45.4091 80° East  Level FlightAware Approximate
Wed 02:10:00 AM 50.5791 -45.1839 81° East  Level FlightAware Approximate
Wed 02:11:00 AM 50.6024 -44.9585 81° East  Level FlightAware Approximate
Wed 02:12:00 AM 50.6252 -44.7328 81° East  Level FlightAware Approximate
Wed 02:13:00 AM 50.6476 -44.5070 81° East  Level FlightAware Approximate
Wed 02:14:00 AM 50.6696 -44.2809 81° East  Level FlightAware Approximate
Wed 02:15:00 AM 50.6911 -44.0546 81° East  Level FlightAware Approximate
Wed 02:16:00 AM 50.7122 -43.8281 82° East  Level FlightAware Approximate
Wed 02:17:00 AM 50.7328 -43.6014 82° East  Level FlightAware Approximate
Wed 02:18:00 AM 50.7530 -43.3745 82° East  Level FlightAware Approximate
Wed 02:19:00 AM 50.7728 -43.1475 82° East  Level FlightAware Approximate
Wed 02:20:00 AM 50.7921 -42.9202 82° East  Level FlightAware Approximate
Wed 02:21:00 AM 50.8110 -42.6927 82° East  Level FlightAware Approximate
Wed 02:22:00 AM 50.8294 -42.4651 83° East  Level FlightAware Approximate
Wed 02:23:00 AM 50.8474 -42.2373 83° East  Level FlightAware Approximate
Wed 02:24:00 AM 50.8650 -42.0093 83° East  Level FlightAware Approximate
Wed 02:25:00 AM 50.8821 -41.7811 83° East  Level FlightAware Approximate
Wed 02:26:00 AM 50.8988 -41.5528 83° East  Level FlightAware Approximate
Wed 02:27:00 AM 50.9150 -41.3243 83° East  Level FlightAware Approximate
Wed 02:28:00 AM 50.9308 -41.0957 84° East  Level FlightAware Approximate
Wed 02:29:00 AM 50.9461 -40.8669 84° East  Level FlightAware Approximate
Wed 02:30:00 AM 50.9610 -40.6379 84° East  Level FlightAware Approximate
Wed 02:31:00 AM 50.9754 -40.4088 84° East  Level FlightAware Approximate
Wed 02:32:00 AM 50.9894 -40.1796 84° East  Level FlightAware Approximate
Wed 02:33:00 AM 51.0021 -39.9502 86° East  Level FlightAware Approximate
Wed 02:34:00 AM 51.0116 -39.7202 86° East  Level FlightAware Approximate
Wed 02:34:00 AM 51.0000 -40.0000 86° East 526 605 34,000  Level ETMS Enhanced Traffic Management System
Wed 02:35:00 AM 51.0207 -39.4902 86° East  Level FlightAware Approximate
Wed 02:36:00 AM 51.0291 -39.2652 87° East  Level FlightAware Approximate
Wed 02:37:00 AM 51.0371 -39.0402 87° East  Level FlightAware Approximate
Wed 02:38:00 AM 51.0447 -38.8150 87° East  Level FlightAware Approximate
Wed 02:39:00 AM 51.0518 -38.5898 87° East  Level FlightAware Approximate
Wed 02:40:00 AM 51.0647 -38.1425 88° East 526 605 34,000  Level FlightAware Transoceanic
Wed 02:41:00 AM 51.0707 -37.9099 88° East 526 605 34,000  Level FlightAware Transoceanic
Wed 02:42:00 AM 51.0762 -37.6774 88° East 526 605 34,000  Level FlightAware Transoceanic
Wed 02:43:00 AM 51.0813 -37.4447 88° East 526 605 34,000  Level FlightAware Transoceanic
Wed 02:44:00 AM 51.0859 -37.2120 88° East 526 605 34,000  Level FlightAware Transoceanic
Wed 02:45:00 AM 51.0901 -36.9793 88° East 526 605 34,000  Level FlightAware Transoceanic
Wed 02:46:00 AM 51.0938 -36.7465 89° East 526 605 34,000  Level FlightAware Transoceanic
Wed 02:47:00 AM 51.0970 -36.5137 89° East 526 605 34,000  Level FlightAware Transoceanic
Wed 02:48:00 AM 51.0998 -36.2809 89° East 526 605 34,000  Level FlightAware Transoceanic
Wed 02:49:00 AM 51.1021 -36.0480 89° East 526 605 34,000  Level FlightAware Transoceanic
Wed 02:50:00 AM 51.1040 -35.8152 89° East 526 605 34,000  Level FlightAware Transoceanic
Wed 02:51:00 AM 51.1054 -35.5823 90° East 526 605 34,000  Level FlightAware Transoceanic
Wed 02:52:00 AM 51.1063 -35.3494 90° East 526 605 34,000  Level FlightAware Transoceanic
Wed 02:53:00 AM 51.1067 -35.1165 90° East 526 605 34,000  Level FlightAware Transoceanic
Wed 02:54:00 AM 51.1067 -34.8835 90° East 526 605 34,000  Level FlightAware Transoceanic
Wed 02:55:00 AM 51.1063 -34.6506 90° East 526 605 34,000  Level FlightAware Transoceanic
Wed 02:56:00 AM 51.1054 -34.4177 90° East 526 605 34,000  Level FlightAware Transoceanic
Wed 02:57:00 AM 51.1040 -34.1848 91° East 526 605 34,000  Level FlightAware Transoceanic
Wed 02:58:00 AM 51.1021 -33.9520 91° East 526 605 34,000  Level FlightAware Transoceanic
Wed 02:59:00 AM 51.0998 -33.7191 91° East 526 605 34,000  Level FlightAware Transoceanic
Wed 03:00:00 AM 51.0970 -33.4863 91° East 526 605 34,000  Level FlightAware Transoceanic
Wed 03:01:00 AM 51.0938 -33.2535 91° East 526 605 34,000  Level FlightAware Transoceanic
Wed 03:02:00 AM 51.0901 -33.0207 92° East 526 605 34,000  Level FlightAware Transoceanic
Wed 03:03:00 AM 51.0859 -32.7880 92° East 526 605 34,000  Level FlightAware Transoceanic
Wed 03:04:00 AM 51.0813 -32.5553 92° East 526 605 34,000  Level FlightAware Transoceanic
Wed 03:05:00 AM 51.0762 -32.3226 92° East 526 605 34,000  Level FlightAware Transoceanic
Wed 03:06:00 AM 51.0707 -32.0901 92° East 526 605 34,000  Level FlightAware Transoceanic
Wed 03:07:00 AM 51.0647 -31.8575 92° East 526 605 34,000  Level FlightAware Transoceanic
Wed 03:08:00 AM 51.0582 -31.6251 93° East 526 605 34,000  Level FlightAware Transoceanic
Wed 03:09:00 AM 51.0513 -31.3927 93° East 526 605 34,000  Level FlightAware Transoceanic
Wed 03:10:00 AM 51.0439 -31.1604 93° East 526 605 34,000  Level FlightAware Transoceanic
Wed 03:11:00 AM 51.0360 -30.9281 93° East 526 605 34,000  Level FlightAware Transoceanic
Wed 03:12:00 AM 51.0277 -30.6960 93° East 526 605 34,000  Level FlightAware Transoceanic
Wed 03:13:00 AM 51.0189 -30.4639 94° East 526 605 34,000  Level FlightAware Transoceanic
Wed 03:14:00 AM 51.0097 -30.2319 94° East 526 605 34,000  Level FlightAware Transoceanic
Wed 03:15:00 AM 51.0003 -30.0071 94° East  Level FlightAware Approximate
Wed 03:16:00 AM 50.9906 -29.7824 94° East  Level FlightAware Approximate
Wed 03:17:00 AM 50.9881 -29.7899 95° East  Level FlightAware Approximate
Wed 03:18:00 AM 50.9750 -29.5657 95° East  Level FlightAware Approximate
Wed 03:19:00 AM 50.9615 -29.3416 95° East  Level FlightAware Approximate
Wed 03:20:00 AM 50.9476 -29.1176 96° East  Level FlightAware Approximate
Wed 03:20:58 AM 51.0000 -30.0000 95° East 514 592 34,000  Level ETMS Enhanced Traffic Management System
Wed 03:21:00 AM 50.9332 -28.8938 96° East  Level FlightAware Approximate
Wed 03:22:00 AM 50.9184 -28.6698 96° East  Level FlightAware Approximate
Wed 03:23:00 AM 50.9031 -28.4459 96° East  Level FlightAware Approximate
Wed 03:24:00 AM 50.8874 -28.2221 96° East  Level FlightAware Approximate
Wed 03:25:00 AM 50.8713 -27.9985 96° East  Level FlightAware Approximate
Wed 03:26:00 AM 50.8547 -27.7750 97° East  Level FlightAware Approximate
Wed 03:27:00 AM 50.8176 -27.2944 97° East 514 592 34,000  Level FlightAware Transoceanic
Wed 03:28:00 AM 50.7996 -27.0699 97° East 514 592 34,000  Level FlightAware Transoceanic
Wed 03:29:00 AM 50.7812 -26.8457 97° East 514 592 34,000  Level FlightAware Transoceanic
Wed 03:30:00 AM 50.7623 -26.6216 98° East 514 592 34,000  Level FlightAware Transoceanic
Wed 03:31:00 AM 50.7430 -26.3976 98° East 514 592 34,000  Level FlightAware Transoceanic
Wed 03:32:00 AM 50.7233 -26.1739 98° East 514 592 34,000  Level FlightAware Transoceanic
Wed 03:33:00 AM 50.7031 -25.9504 98° East 514 592 34,000  Level FlightAware Transoceanic
Wed 03:34:00 AM 50.6826 -25.7271 98° East 514 592 34,000  Level FlightAware Transoceanic
Wed 03:35:00 AM 50.6615 -25.5039 99° East 514 592 34,000  Level FlightAware Transoceanic
Wed 03:36:00 AM 50.6401 -25.2810 99° East 514 592 34,000  Level FlightAware Transoceanic
Wed 03:37:00 AM 50.6183 -25.0582 99° East 514 592 34,000  Level FlightAware Transoceanic
Wed 03:38:00 AM 50.5960 -24.8357 99° East 514 592 34,000  Level FlightAware Transoceanic
Wed 03:39:00 AM 50.5733 -24.6134 99° East 514 592 34,000  Level FlightAware Transoceanic
Wed 03:40:00 AM 50.5501 -24.3913 99° East 514 592 34,000  Level FlightAware Transoceanic
Wed 03:41:00 AM 50.5266 -24.1694 100° East 514 592 34,000  Level FlightAware Transoceanic
Wed 03:42:00 AM 50.5026 -23.9477 100° East 514 592 34,000  Level FlightAware Transoceanic
Wed 03:43:00 AM 50.4782 -23.7263 100° East 514 592 34,000  Level FlightAware Transoceanic
Wed 03:44:00 AM 50.4534 -23.5051 100° East 514 592 34,000  Level FlightAware Transoceanic
Wed 03:45:00 AM 50.4282 -23.2841 100° East 514 592 34,000  Level FlightAware Transoceanic
Wed 03:46:00 AM 50.4025 -23.0634 100° East 514 592 34,000  Level FlightAware Transoceanic
Wed 03:47:00 AM 50.3764 -22.8429 101° East 514 592 34,000  Level FlightAware Transoceanic
Wed 03:48:00 AM 50.3500 -22.6227 101° East 514 592 34,000  Level FlightAware Transoceanic
Wed 03:49:00 AM 50.3231 -22.4027 101° East 514 592 34,000  Level FlightAware Transoceanic
Wed 03:50:00 AM 50.2957 -22.1829 101° East 514 592 34,000  Level FlightAware Transoceanic
Wed 03:51:00 AM 50.2680 -21.9635 101° East 514 592 34,000  Level FlightAware Transoceanic
Wed 03:52:00 AM 50.2399 -21.7442 101° East 514 592 34,000  Level FlightAware Transoceanic
Wed 03:53:00 AM 50.2113 -21.5252 102° East 514 592 34,000  Level FlightAware Transoceanic
Wed 03:54:00 AM 50.1824 -21.3065 102° East 514 592 34,000  Level FlightAware Transoceanic
Wed 03:55:00 AM 50.1530 -21.0881 102° East 514 592 34,000  Level FlightAware Transoceanic
Wed 03:56:00 AM 50.1232 -20.8699 102° East 514 592 34,000  Level FlightAware Transoceanic
Wed 03:57:00 AM 50.0930 -20.6520 102° East 514 592 34,000  Level FlightAware Transoceanic
Wed 03:58:00 AM 50.0624 -20.4344 102° East 514 592 34,000  Level FlightAware Transoceanic
Wed 03:59:00 AM 50.0314 -20.2171 103° East 514 592 34,000 -10 Level FlightAware Transoceanic
Wed 04:00:00 AM 50.0002 -20.0015 103° East  Level FlightAware Approximate
Wed 04:01:00 AM 49.9692 -19.7859 103° East  Level FlightAware Approximate
Wed 04:02:00 AM 49.9918 -19.7825 93° East  Level FlightAware Approximate
Wed 04:03:00 AM 49.9830 -19.5620 93° East  Level FlightAware Approximate
Wed 04:04:00 AM 49.9739 -19.3417 94° East  Level FlightAware Approximate
Wed 04:05:00 AM 49.9643 -19.1214 94° East  Level FlightAware Approximate
Wed 04:06:00 AM 49.9543 -18.9012 94° East  Level FlightAware Approximate
Wed 04:07:00 AM 49.9439 -18.6812 94° East  Level FlightAware Approximate
Wed 04:08:00 AM 49.9331 -18.4612 94° East  Level FlightAware Approximate
Wed 04:09:00 AM 49.9235 -18.2411 94° East  Level FlightAware Approximate
Wed 04:10:00 AM 49.9135 -18.0211 94° East  Level FlightAware Approximate
Wed 04:11:00 AM 49.9031 -17.8012 94° East  Level FlightAware Approximate
Wed 04:12:00 AM 49.8922 -17.5814 94° East  Level FlightAware Approximate
Wed 04:13:00 AM 49.8810 -17.3621 94° East  Level FlightAware Approximate
Wed 04:14:00 AM 49.8694 -17.1428 95° East  Level FlightAware Approximate
Wed 04:15:00 AM 49.8573 -16.9237 95° East  Level FlightAware Approximate
Wed 04:16:00 AM 49.8448 -16.7047 95° East  Level FlightAware Approximate
Wed 04:17:00 AM 49.8319 -16.4858 95° East  Level FlightAware Approximate
Wed 04:18:00 AM 49.8186 -16.2670 95° East  Level FlightAware Approximate
Wed 04:19:00 AM 49.8049 -16.0484 95° East  Level FlightAware Approximate
Wed 04:20:00 AM 49.7908 -15.8299 96° East  Level FlightAware Approximate
Wed 04:21:00 AM 49.7763 -15.6115 96° East  Level FlightAware Approximate
Wed 04:22:00 AM 49.7613 -15.3932 96° East  Level FlightAware Approximate
Wed 04:23:00 AM 49.7460 -15.1751 96° East  Level FlightAware Approximate
Wed 04:24:00 AM 49.7300 -14.9571 97° East  Level FlightAware Approximate
Wed 04:25:00 AM 49.7131 -14.7394 97° East  Level FlightAware Approximate
Wed 04:26:00 AM 49.6956 -14.5219 97° East  Level FlightAware Approximate
Wed 04:27:00 AM 49.6778 -14.3045 97° East  Level FlightAware Approximate
Wed 04:28:00 AM 49.6596 -14.0873 97° East  Level FlightAware Approximate
Wed 04:29:00 AM 49.6410 -13.8702 97° East  Level FlightAware Approximate
Wed 04:30:00 AM 49.6220 -13.6534 98° East  Level FlightAware Approximate
Wed 04:31:00 AM 49.6025 -13.4367 98° East  Level FlightAware Approximate
Wed 04:32:00 AM 49.5827 -13.2201 98° East  Level FlightAware Approximate
Wed 04:33:00 AM 49.5625 -13.0038 98° East  Level FlightAware Approximate
Wed 04:34:00 AM 49.5418 -12.7876 98° East  Level FlightAware Approximate
Wed 04:35:00 AM 49.5214 -12.5714 98° East  Level FlightAware Approximate
Wed 04:36:00 AM 49.5011 -12.3554 98° East  Level FlightAware Approximate
Wed 04:37:00 AM 49.4803 -12.1395 98° East  Level FlightAware Approximate
Wed 04:38:00 AM 49.4591 -11.9238 99° East  Level FlightAware Approximate
Wed 04:39:00 AM 49.4376 -11.7083 99° East  Level FlightAware Approximate
Wed 04:40:00 AM 49.4156 -11.4930 99° East  Level FlightAware Approximate
Wed 04:41:00 AM 49.3932 -11.2778 99° East  Level FlightAware Approximate
Wed 04:42:00 AM 49.3705 -11.0629 99° East  Level FlightAware Approximate
Wed 04:43:00 AM 49.3473 -10.8482 99° East  Level FlightAware Approximate
Wed 04:44:00 AM 49.3237 -10.6337 99° East  Level FlightAware Approximate
Wed 04:45:00 AM 49.2998 -10.4194 100° East  Level FlightAware Approximate
Wed 04:46:00 AM 49.2754 -10.2053 100° East  Level FlightAware Approximate
Wed 04:47:00 AM 49.2507 -9.9914 100° East  Level FlightAware Approximate
Wed 04:48:00 AM 49.2255 -9.7777 100° East  Level FlightAware Approximate
Wed 04:48:30 AM 49.2155 -8.9771 100° East 498 573 33,500  Level FlightAware UK
Wed 04:48:48 AM 49.2051 -8.9108 104° East 500 575 33,500  Level FlightAware UK
Wed 04:49:06 AM 49.1942 -8.8442 104° East 500 575 33,500  Level FlightAware UK
Wed 04:49:24 AM 49.1832 -8.7777 104° East 500 575 33,500  Level FlightAware UK
Wed 04:49:42 AM 49.1722 -8.7111 104° East 500 575 33,500  Level FlightAware UK
Wed 04:50:00 AM 49.1613 -8.6445 104° East 502 578 33,500 3,600 Level FlightAware UK
Wed 04:50:07 AM 49.1720 -8.6070 104° East 540 621 35,000  Climbing FlightAware ADS-B
Wed 04:50:24 AM 49.1465 -8.5557 104° East 504 580 33,500 -2,571 Descending FlightAware UK
Wed 04:50:42 AM 49.1352 -8.4892 105° East 504 580 33,500 5,000 Level FlightAware UK
Wed 04:50:42 AM 49.1500 -8.4760 105° East 539 620 35,000  Climbing FlightAware ADS-B
Wed 04:51:00 AM 49.1239 -8.4228 105° East 504 580 33,500 -2,500 Descending FlightAware UK
Wed 04:51:18 AM 49.1127 -8.3564 105° East 500 575 33,500 2,813 Level FlightAware UK
Wed 04:51:32 AM 49.1190 -8.2880 105° East 539 620 35,000  Climbing FlightAware ADS-B
Wed 04:51:48 AM 49.0938 -8.2459 105° East 502 578 33,500 -2,647 Descending FlightAware UK
Wed 04:52:06 AM 49.0826 -8.1796 104° East 500 575 33,500 3,750 Level FlightAware UK
Wed 04:52:12 AM 49.0940 -8.1450 104° East 539 620 35,000  Climbing FlightAware ADS-B
Wed 04:52:30 AM 49.0678 -8.0913 104° East 496 571 33,500 -2,500 Descending FlightAware UK
Wed 04:52:48 AM 49.0565 -8.0251 105° East 496 571 33,500 4,091 Level FlightAware UK
Wed 04:52:52 AM 49.0690 -7.9980 105° East 539 620 35,000  Climbing FlightAware ADS-B
Wed 04:53:12 AM 49.0412 -7.9362 105° East 500 575 33,500 -2,368 Descending FlightAware UK
Wed 04:53:30 AM 49.0298 -7.8701 105° East 500 575 33,500 3,600 Level FlightAware UK
Wed 04:53:37 AM 49.0410 -7.8340 105° East 540 621 35,000  Climbing FlightAware ADS-B
Wed 04:53:54 AM 49.0146 -7.7819 105° East 498 573 33,500 -2,571 Descending FlightAware UK
Wed 04:54:12 AM 49.0031 -7.7159 105° East 496 571 33,500 3,913 Level FlightAware UK
Wed 04:54:17 AM 49.0150 -7.6860 105° East 540 621 35,000  Climbing FlightAware ADS-B
Wed 04:54:36 AM 48.9879 -7.6277 105° East 494 568 33,500 -2,432 Descending FlightAware UK
Wed 04:54:54 AM 48.9763 -7.5616 105° East 494 568 33,500 4,286 Level FlightAware UK
Wed 04:54:57 AM 48.9890 -7.5380 105° East 541 623 35,000  Climbing FlightAware ADS-B
Wed 04:55:12 AM 48.9646 -7.4954 105° East 494 568 33,500 -2,727 Descending FlightAware UK
Wed 04:55:30 AM 48.9529 -7.4293 105° East 496 571 33,500 3,600 Level FlightAware UK
Wed 04:55:37 AM 48.9620 -7.3930 105° East 537 618 35,000  Climbing FlightAware ADS-B
Wed 04:55:54 AM 48.9290 -7.3459 105° East 496 571 33,500 -2,571 Descending FlightAware UK
Wed 04:56:12 AM 48.9110 -7.2843 114° Southeast 498 573 33,500 3,913 Level FlightAware UK
Wed 04:56:17 AM 48.9220 -7.2590 114° Southeast 531 611 35,000  Climbing FlightAware ADS-B
Wed 04:56:36 AM 48.8850 -7.2040 114° Southeast 496 571 33,500 -2,432 Descending FlightAware UK
Wed 04:56:54 AM 48.8649 -7.1443 117° Southeast 498 573 33,500  Level FlightAware UK
Wed 04:57:12 AM 48.8446 -7.0844 117° Southeast 496 571 33,500  Level FlightAware UK
Wed 04:57:30 AM 48.8244 -7.0247 117° Southeast 498 573 33,500  Level FlightAware UK
Wed 04:57:48 AM 48.8043 -6.9646 117° Southeast 498 573 33,500 2,813 Level FlightAware UK
Wed 04:58:02 AM 48.8030 -6.9030 117° Southeast 533 613 35,000  Climbing FlightAware ADS-B
Wed 04:58:18 AM 48.7709 -6.8636 117° Southeast 498 573 33,500 -2,647 Descending FlightAware UK
Wed 04:58:36 AM 48.7512 -6.8033 116° Southeast 498 573 33,500 4,737 Level FlightAware UK
Wed 04:58:37 AM 48.7660 -6.7920 116° Southeast 534 615 35,000  Climbing FlightAware ADS-B
Wed 04:58:54 AM 48.7315 -6.7428 116° Southeast 496 571 33,500 -2,571 Descending FlightAware UK
Wed 04:59:12 AM 48.7119 -6.6823 116° Southeast 494 568 33,500 3,214 Level FlightAware UK
Wed 04:59:22 AM 48.7180 -6.6460 116° Southeast 536 617 35,000  Climbing FlightAware ADS-B
Wed 04:59:42 AM 48.6790 -6.5816 116° Southeast 494 568 33,500 -2,368 Descending FlightAware UK
Wed 05:00:00 AM 48.6590 -6.5212 117° Southeast 494 568 33,500 3,600 Level FlightAware UK
Wed 05:00:07 AM 48.6730 -6.5110 117° Southeast 538 619 35,000  Climbing FlightAware ADS-B
Wed 05:00:24 AM 48.6323 -6.4406 117° Southeast 494 568 33,500 -2,571 Descending FlightAware UK
Wed 05:00:42 AM 48.6122 -6.3800 117° Southeast 494 568 33,500 5,000 Level FlightAware UK
Wed 05:00:42 AM 48.6290 -6.3780 117° Southeast 539 620 35,000  Climbing FlightAware ADS-B
Wed 05:01:00 AM 48.5919 -6.3195 117° Southeast 494 568 33,500 -2,500 Descending FlightAware UK
Wed 05:01:18 AM 48.5717 -6.2587 117° Southeast 494 568 33,500 2,813 Level FlightAware UK
Wed 05:01:32 AM 48.5720 -6.2100 117° Southeast 541 623 35,000  Climbing FlightAware ADS-B
Wed 05:01:48 AM 48.5376 -6.1577 117° Southeast 494 568 33,500 -2,647 Descending FlightAware UK
Wed 05:02:06 AM 48.5171 -6.0972 117° Southeast 494 568 33,500 4,737 Level FlightAware UK
Wed 05:02:07 AM 48.5320 -6.0930 117° Southeast 542 624 35,000  Climbing FlightAware ADS-B
Wed 05:02:24 AM 48.4964 -6.0366 117° Southeast 494 568 33,500 -2,571 Descending FlightAware UK
Wed 05:02:42 AM 48.4758 -5.9760 117° Southeast 492 566 33,500 2,727 Level FlightAware UK
Wed 05:02:57 AM 48.4730 -5.9190 117° Southeast 544 626 35,000  Climbing FlightAware ADS-B
Wed 05:03:12 AM 48.4411 -5.8750 117° Southeast 490 564 33,500 -2,727 Descending FlightAware UK
Wed 05:03:30 AM 48.4203 -5.8142 117° Southeast 490 564 33,500 3,600 Level FlightAware UK
Wed 05:03:37 AM 48.4260 -5.7850 117° Southeast 547 629 35,000  Climbing FlightAware ADS-B
Wed 05:03:54 AM 48.3922 -5.7325 117° Southeast 490 564 33,500 -2,571 Descending FlightAware UK
Wed 05:04:12 AM 48.3713 -5.6719 117° Southeast 490 564 33,500 3,913 Level FlightAware UK
Wed 05:04:17 AM 48.3780 -5.6470 117° Southeast 549 632 35,000  Climbing FlightAware ADS-B
Wed 05:04:36 AM 48.3434 -5.5908 117° Southeast 490 564 33,500 -2,432 Descending FlightAware UK
Wed 05:04:54 AM 48.3222 -5.5298 117° Southeast 492 566 33,500 3,462 Level FlightAware UK
Wed 05:05:02 AM 48.3230 -5.4890 117° Southeast 553 636 35,000  Climbing FlightAware ADS-B
Wed 05:05:18 AM 48.2939 -5.4480 117° Southeast 494 568 33,500 -2,647 Descending FlightAware UK
Wed 05:05:36 AM 48.2724 -5.3866 118° Southeast 494 568 33,500 3,750 Level FlightAware UK
Wed 05:05:42 AM 48.2750 -5.3510 118° Southeast 555 639 35,000  Climbing FlightAware ADS-B
Wed 05:06:00 AM 48.2439 -5.3043 118° Southeast 498 573 33,500 -2,500 Descending FlightAware UK
Wed 05:06:18 AM 48.2222 -5.2427 118° Southeast 498 573 33,500 3,333 Level FlightAware UK
Wed 05:06:27 AM 48.2240 -5.2070 118° Southeast 556 640 35,000 1,837 Climbing FlightAware ADS-B
Wed 05:07:07 AM 48.1750 -5.0690 118° Southeast 555 639 35,000  Level FlightAware ADS-B
Wed 05:07:47 AM 48.1270 -4.9340 118° Southeast 554 638 35,000  Level FlightAware ADS-B
Wed 05:08:32 AM 48.0710 -4.7770 118° Southeast 554 638 35,000  Level FlightAware ADS-B
Wed 05:09:12 AM 48.0220 -4.6400 118° Southeast 555 639 35,000  Level FlightAware ADS-B
Wed 05:09:52 AM 47.9740 -4.5080 118° Southeast 555 639 35,000  Level FlightAware ADS-B
Wed 05:10:37 AM 47.9190 -4.3590 119° Southeast 556 640 35,000  Level FlightAware ADS-B
Wed 05:11:17 AM 47.8700 -4.2230 118° Southeast 557 641 35,000  Level FlightAware ADS-B
Wed 05:12:02 AM 47.8140 -4.0710 119° Southeast 558 642 35,000  Level FlightAware ADS-B
Wed 05:12:42 AM 47.7630 -3.9330 119° Southeast 559 643 35,000  Level FlightAware ADS-B
Wed 05:13:27 AM 47.7090 -3.7870 119° Southeast 561 646 35,000  Level FlightAware ADS-B
Wed 05:14:07 AM 47.6570 -3.6470 119° Southeast 563 648 35,000  Level FlightAware ADS-B
Wed 05:14:52 AM 47.6010 -3.4980 119° Southeast 564 649 35,000  Level FlightAware ADS-B
Wed 05:15:32 AM 47.5500 -3.3590 118° Southeast 567 652 35,000  Level FlightAware ADS-B
Wed 05:16:12 AM 47.5000 -3.2260 119° Southeast 568 654 35,000  Level FlightAware ADS-B
Wed 05:16:57 AM 47.4430 -3.0760 119° Southeast 570 656 35,000  Level FlightAware ADS-B
Wed 05:17:37 AM 47.3910 -2.9410 120° Southeast 572 658 35,000  Level FlightAware ADS-B
Wed 05:18:17 AM 47.3390 -2.8040 119° Southeast 573 659 35,000  Level FlightAware ADS-B
Wed 05:19:02 AM 47.2790 -2.6480 120° Southeast 575 662 35,000  Level FlightAware ADS-B
Wed 05:19:42 AM 47.2270 -2.5130 120° Southeast 576 663 35,000  Level FlightAware ADS-B
Wed 05:20:27 AM 47.1680 -2.3620 120° Southeast 577 664 35,000  Level FlightAware ADS-B
Wed 05:21:07 AM 47.1140 -2.2250 120° Southeast 576 663 35,000  Level FlightAware ADS-B
Wed 05:21:47 AM 47.0600 -2.0880 120° Southeast 577 664 35,000  Level FlightAware ADS-B
Wed 05:22:32 AM 47.0000 -1.9360 120° Southeast 576 663 35,000  Level FlightAware ADS-B
Wed 05:23:12 AM 46.9460 -1.8010 120° Southeast 576 663 35,000  Level FlightAware ADS-B
Wed 05:23:57 AM 46.8860 -1.6530 121° Southeast 576 663 35,000  Level FlightAware ADS-B
Wed 05:24:37 AM 46.8320 -1.5190 120° Southeast 576 663 35,000  Level FlightAware ADS-B
Wed 05:25:17 AM 46.7780 -1.3850 120° Southeast 575 662 35,000  Level FlightAware ADS-B
Wed 05:26:02 AM 46.7160 -1.2330 121° Southeast 573 659 35,000  Level FlightAware ADS-B
Wed 05:26:42 AM 46.6620 -1.1020 121° Southeast 573 659 35,000  Level FlightAware ADS-B
Wed 05:27:27 AM 46.6010 -0.9540 121° Southeast 573 659 35,000  Level FlightAware ADS-B
Wed 05:28:07 AM 46.5470 -0.8220 121° Southeast 574 661 35,000  Level FlightAware ADS-B
Wed 05:28:42 AM 46.5050 -0.7170 120° Southeast 574 661 35,000  Level FlightAware ADS-B
Wed 05:29:32 AM 46.4480 -0.5750 120° Southeast 574 661 35,000  Level FlightAware ADS-B
Wed 05:30:07 AM 46.3900 -0.4440 123° Southeast 570 656 35,000  Level FlightAware ADS-B
Wed 05:30:52 AM 46.3270 -0.2930 121° Southeast 568 654 35,000  Level FlightAware ADS-B
Wed 05:31:32 AM 46.2810 -0.1850 122° Southeast 568 654 35,000  Level FlightAware ADS-B
Wed 05:32:17 AM 46.2140 -0.0250 121° Southeast 568 654 35,000  Level FlightAware ADS-B
Wed 05:33:07 AM 46.1640 0.1600 111° Southeast 579 666 35,000  Level FlightAware ADS-B
Wed 05:35:00 AM 46.0912 0.5306 106° East  Level Estimated
Wed 05:35:32 AM 46.0750 0.7040 106° East 579 666 35,000  Level FlightAware ADS-B
Wed 05:36:12 AM 46.0540 0.8320 103° East 579 666 35,000  Level FlightAware ADS-B
Wed 05:36:52 AM 46.0340 0.9600 103° East 579 666 35,000  Level FlightAware ADS-B
Wed 05:37:32 AM 46.0130 1.0880 103° East 579 666 35,000  Level FlightAware ADS-B
Wed 05:38:22 AM 45.9880 1.2470 103° East 579 666 35,000  Level FlightAware ADS-B
Wed 05:39:02 AM 45.9670 1.3750 103° East 579 666 35,000  Level FlightAware ADS-B
Wed 05:39:47 AM 45.8560 1.6450 120° Southeast 577 664 35,000  Level FlightAware ADS-B
Wed 05:40:27 AM 45.8170 1.7920 111° Southeast 578 665 35,000  Level FlightAware ADS-B
Wed 05:41:07 AM 45.7780 1.9360 111° Southeast 579 666 35,000  Level FlightAware ADS-B
Wed 05:41:52 AM 45.7350 2.0990 111° Southeast 581 669 35,000  Level FlightAware ADS-B
Wed 05:42:32 AM 45.6960 2.2400 112° Southeast 583 671 35,000  Level FlightAware ADS-B
Wed 05:43:17 AM 45.6540 2.3940 111° Southeast 583 671 35,000  Level FlightAware ADS-B
Wed 05:43:57 AM 45.6110 2.5510 111° Southeast 583 671 35,000  Level FlightAware ADS-B
Wed 05:44:37 AM 45.5750 2.6810 112° Southeast 583 671 35,000  Level FlightAware ADS-B
Wed 05:45:22 AM 45.5270 2.8500 112° Southeast 582 670 35,000  Level FlightAware ADS-B
Wed 05:46:02 AM 45.4880 2.9890 112° Southeast 581 669 35,000  Level FlightAware ADS-B
Wed 05:46:47 AM 45.4420 3.1500 112° Southeast 581 669 35,000  Level FlightAware ADS-B
Wed 05:47:27 AM 45.4020 3.2900 112° Southeast 581 669 35,000 450 Level FlightAware ADS-B
Wed 05:48:07 AM 45.3600 3.4380 112° Southeast 583 671 35,600 1,059 Climbing FlightAware ADS-B
Wed 05:48:52 AM 45.3160 3.5910 112° Southeast 582 670 36,500 988 Climbing FlightAware ADS-B
Wed 05:49:32 AM 45.2760 3.7310 112° Southeast 582 670 37,000 353 Climbing FlightAware ADS-B
Wed 05:50:17 AM 45.2200 3.8940 116° Southeast 582 670 37,000  Level FlightAware ADS-B
Wed 05:50:57 AM 45.1670 4.0190 121° Southeast 580 667 37,000  Level FlightAware ADS-B
Wed 05:51:37 AM 45.1110 4.1510 121° Southeast 579 666 37,000  Level FlightAware ADS-B
Wed 05:52:22 AM 45.0480 4.2970 121° Southeast 578 665 37,000  Level FlightAware ADS-B
Wed 05:53:02 AM 44.9950 4.4210 121° Southeast 578 665 37,000  Level FlightAware ADS-B
Wed 05:53:47 AM 44.9300 4.5720 121° Southeast 577 664 37,000  Level FlightAware ADS-B
Wed 05:54:27 AM 44.8670 4.6930 126° Southeast 575 662 37,000  Level FlightAware ADS-B
Wed 05:55:07 AM 44.7980 4.8090 130° Southeast 575 662 37,000  Level FlightAware ADS-B
Wed 05:55:52 AM 44.7230 4.9360 130° Southeast 575 662 37,000  Level FlightAware ADS-B
Wed 05:56:32 AM 44.6540 5.0510 130° Southeast 575 662 37,000  Level FlightAware ADS-B
Wed 05:57:12 AM 44.5850 5.1650 130° Southeast 576 663 37,000  Level FlightAware ADS-B
Wed 05:57:57 AM 44.5080 5.2920 130° Southeast 575 662 37,000  Level FlightAware ADS-B
Wed 05:58:37 AM 44.4370 5.4070 131° Southeast 576 663 37,000  Level FlightAware ADS-B
Wed 05:59:22 AM 44.3610 5.5300 131° Southeast 576 663 37,000  Level FlightAware ADS-B
Wed 06:00:02 AM 44.2910 5.6430 131° Southeast 575 662 37,000  Level FlightAware ADS-B
Wed 06:00:42 AM 44.2260 5.7530 129° Southeast 576 663 37,000  Level FlightAware ADS-B
Wed 06:01:27 AM 44.1610 5.9010 121° Southeast 574 661 37,000  Level FlightAware ADS-B
Wed 06:02:12 AM 44.1080 6.0360 119° Southeast 573 659 37,000  Level FlightAware ADS-B
Wed 06:02:52 AM 44.0560 6.1680 119° Southeast 573 659 37,000  Level FlightAware ADS-B
Wed 06:03:37 AM 43.9950 6.3180 119° Southeast 573 659 37,000  Level FlightAware ADS-B
Wed 06:04:17 AM 43.9400 6.4510 120° Southeast 573 659 37,000  Level FlightAware ADS-B
Wed 06:04:57 AM 43.8870 6.5780 120° Southeast 572 658 37,000  Level FlightAware ADS-B
Wed 06:05:42 AM 43.8300 6.7170 120° Southeast 574 661 37,000  Level FlightAware ADS-B
Wed 06:06:22 AM 43.7760 6.8460 120° Southeast 574 661 37,000  Level FlightAware ADS-B
Wed 06:07:07 AM 43.7180 6.9830 120° Southeast 574 661 37,000  Level FlightAware ADS-B
Wed 06:07:47 AM 43.6610 7.1160 121° Southeast 574 661 37,000  Level FlightAware ADS-B
Wed 06:08:27 AM 43.6090 7.2340 121° Southeast 574 661 37,000  Level FlightAware ADS-B
Wed 06:09:12 AM 43.5450 7.3780 121° Southeast 575 662 37,000  Level FlightAware ADS-B
Wed 06:09:52 AM 43.4920 7.4990 121° Southeast 574 661 37,000  Level FlightAware ADS-B
Wed 06:10:37 AM 43.4260 7.6490 121° Southeast 574 661 37,000  Level FlightAware ADS-B
Wed 06:11:17 AM 43.3710 7.7740 121° Southeast 573 659 37,000  Level FlightAware ADS-B
Wed 06:11:57 AM 43.3160 7.8960 122° Southeast 573 659 37,000  Level FlightAware ADS-B
Wed 06:12:42 AM 43.2540 8.0360 121° Southeast 574 661 37,000  Level FlightAware ADS-B
Wed 06:13:22 AM 43.1980 8.1580 122° Southeast 574 661 37,000  Level FlightAware ADS-B
Wed 06:14:07 AM 43.1350 8.2980 122° Southeast 575 662 37,000  Level FlightAware ADS-B
Wed 06:14:47 AM 43.0780 8.4220 122° Southeast 575 662 37,000  Level FlightAware ADS-B
Wed 06:15:27 AM 43.0210 8.5460 122° Southeast 576 663 37,000  Level FlightAware ADS-B
Wed 06:16:12 AM 42.9630 8.6720 122° Southeast 575 662 37,000  Level FlightAware ADS-B
Wed 06:16:52 AM 42.9080 8.7890 123° Southeast 574 661 37,000  Level FlightAware ADS-B
Wed 06:17:32 AM 42.8550 8.9050 122° Southeast 574 661 37,000  Level FlightAware ADS-B
Wed 06:18:17 AM 42.7860 9.0520 123° Southeast 572 658 37,000  Level FlightAware ADS-B
Wed 06:18:57 AM 42.7290 9.1730 123° Southeast 569 655 37,000  Level FlightAware ADS-B
Wed 06:19:42 AM 42.6650 9.3080 123° Southeast 566 651 37,000  Level FlightAware ADS-B
Wed 06:20:22 AM 42.6090 9.4280 122° Southeast 558 642 37,000  Level FlightAware ADS-B
Wed 06:21:02 AM 42.5640 9.5440 118° Southeast 551 634 37,000  Level FlightAware ADS-B
Wed 06:21:47 AM 42.5210 9.6990 111° Southeast 548 631 37,000  Level FlightAware ADS-B
Wed 06:22:27 AM 42.4870 9.8280 110° East 547 629 37,000  Level FlightAware ADS-B
Wed 06:23:12 AM 42.4480 9.9720 110° East 547 629 37,000  Level FlightAware ADS-B
Wed 06:23:52 AM 42.4130 10.1030 110° East 547 629 37,000  Level FlightAware ADS-B
Wed 06:24:37 AM 42.3730 10.2480 110° East 545 627 37,000  Level FlightAware ADS-B
Wed 06:25:17 AM 42.3380 10.3750 110° East 543 625 37,000  Level FlightAware ADS-B
Wed 06:25:57 AM 42.3030 10.5040 110° East 540 621 37,000  Level FlightAware ADS-B
Wed 06:26:42 AM 42.2640 10.6450 110° East 537 618 37,000  Level FlightAware ADS-B
Wed 06:27:22 AM 42.2290 10.7710 111° Southeast 535 616 37,000  Level FlightAware ADS-B
Wed 06:28:02 AM 42.1930 10.8960 111° Southeast 532 612 37,000  Level FlightAware ADS-B
Wed 06:30:00 AM 42.0781 11.2364 114° Southeast  Level FlightAware Approximate
Wed 06:31:00 AM 42.0193 11.4090 115° Southeast  Level FlightAware Approximate
Wed 06:32:00 AM 41.9204 11.5520 134° Southeast  Level FlightAware Approximate
Wed 06:33:00 AM 41.8228 11.6887 134° Southeast  Level FlightAware Approximate
Wed 06:34:00 AM 41.7250 11.8250 134° Southeast  Level FlightAware Approximate
Wed 06:35:00 AM 41.6271 11.9609 134° Southeast  Level FlightAware Approximate
Wed 06:36:00 AM 41.5290 12.0963 134° Southeast  Level FlightAware Approximate
Wed 06:37:00 AM 41.4307 12.2313 134° Southeast  Level FlightAware Approximate
Wed 06:37:27 AM 41.3830 12.4030 134° Southeast 555 639 37,000  Level FlightAware ADS-B
Wed 06:38:07 AM 41.3070 12.4930 138° Southeast 556 640 37,000  Level FlightAware ADS-B
Wed 06:38:47 AM 41.2320 12.5820 138° Southeast 557 641 37,000  Level FlightAware ADS-B
Wed 06:39:32 AM 41.1440 12.6850 139° Southeast 555 639 37,000  Level FlightAware ADS-B
Wed 06:40:12 AM 41.0760 12.7850 132° Southeast 546 628 37,000  Level FlightAware ADS-B
Wed 06:40:57 AM 41.0150 12.9130 122° Southeast 545 627 37,000  Level FlightAware ADS-B
Wed 06:41:37 AM 40.9610 13.0250 123° Southeast 544 626 37,000  Level FlightAware ADS-B
Wed 06:42:32 AM 40.8930 13.1780 120° Southeast 544 626 37,000  Level FlightAware ADS-B
Wed 06:43:17 AM 40.8350 13.3040 121° Southeast 542 624 37,000  Level FlightAware ADS-B
Wed 06:43:57 AM 40.7840 13.4150 121° Southeast 543 625 37,000  Level FlightAware ADS-B
Wed 06:44:42 AM 40.7230 13.5460 122° Southeast 542 624 37,000  Level FlightAware ADS-B
Wed 06:45:22 AM 40.6680 13.6660 121° Southeast 540 621 37,000  Level FlightAware ADS-B
Wed 06:46:02 AM 40.6140 13.7800 122° Southeast 538 619 37,000  Level FlightAware ADS-B
Wed 06:46:47 AM 40.5560 13.9050 121° Southeast 536 617 37,000  Level FlightAware ADS-B
Wed 06:47:27 AM 40.5070 14.0100 122° Southeast 536 617 37,000  Level FlightAware ADS-B
Wed 06:48:12 AM 40.4460 14.1400 122° Southeast 535 616 37,000  Level FlightAware ADS-B
Wed 06:48:52 AM 40.3940 14.2510 122° Southeast 532 612 37,000  Level FlightAware ADS-B
Wed 06:49:32 AM 40.3410 14.3610 122° Southeast 531 611 37,000  Level FlightAware ADS-B
Wed 06:50:17 AM 40.2820 14.4870 122° Southeast 528 608 37,000  Level FlightAware ADS-B
Wed 06:50:57 AM 40.2310 14.5930 122° Southeast 528 608 37,000  Level FlightAware ADS-B
Wed 06:51:37 AM 40.1780 14.7040 122° Southeast 527 606 37,000  Level FlightAware ADS-B
Wed 06:52:22 AM 40.1220 14.8190 122° Southeast 527 606 37,000  Level FlightAware ADS-B
Wed 06:53:02 AM 40.0680 14.9310 122° Southeast 528 608 37,000  Level FlightAware ADS-B
Wed 06:53:47 AM 40.0090 15.0520 122° Southeast 527 606 37,000  Level FlightAware ADS-B
Wed 06:54:27 AM 39.9570 15.1600 122° Southeast 526 605 37,000  Level FlightAware ADS-B
Wed 06:55:07 AM 39.9050 15.2680 122° Southeast 526 605 37,000  Level FlightAware ADS-B
Wed 06:55:52 AM 39.8470 15.3850 123° Southeast 525 604 37,000  Level FlightAware ADS-B
Wed 06:56:32 AM 39.7960 15.4910 122° Southeast 523 602 37,000  Level FlightAware ADS-B
Wed 06:57:17 AM 39.7370 15.6120 122° Southeast 519 597 37,000  Level FlightAware ADS-B
Wed 06:57:57 AM 39.6980 15.7240 114° Southeast 517 595 37,000  Level FlightAware ADS-B
Wed 06:58:32 AM 39.6670 15.8140 114° Southeast 517 595 37,000  Level FlightAware ADS-B
Wed 06:59:22 AM 39.6130 15.9660 115° Southeast 520 598 37,000  Level FlightAware ADS-B
Wed 07:00:02 AM 39.5720 16.0800 115° Southeast 520 598 37,000  Level FlightAware ADS-B
Wed 07:00:47 AM 39.5280 16.2060 114° Southeast 520 598 37,000  Level FlightAware ADS-B
Wed 07:01:27 AM 39.4900 16.3190 114° Southeast 519 597 37,000  Level FlightAware ADS-B
Wed 07:02:07 AM 39.4500 16.4320 115° Southeast 517 595 37,000  Level FlightAware ADS-B
Wed 07:02:52 AM 39.4060 16.5580 114° Southeast 516 594 37,000  Level FlightAware ADS-B
Wed 07:03:32 AM 39.3660 16.6730 114° Southeast 514 592 37,000  Level FlightAware ADS-B
Wed 07:04:17 AM 39.3220 16.7980 114° Southeast 512 589 37,000  Level FlightAware ADS-B
Wed 07:04:57 AM 39.2830 16.9100 114° Southeast 511 588 37,000  Level FlightAware ADS-B
Wed 07:05:52 AM 39.2360 17.0430 114° Southeast 510 587 37,000  Level FlightAware ADS-B
Wed 07:06:37 AM 39.1930 17.1660 114° Southeast 510 587 37,000  Level FlightAware ADS-B
Wed 07:07:12 AM 39.1590 17.2610 115° Southeast 511 588 37,000  Level FlightAware ADS-B
Wed 07:07:52 AM 39.1210 17.3670 115° Southeast 511 588 37,000  Level FlightAware ADS-B
Wed 07:08:42 AM 39.0730 17.5030 114° Southeast 509 586 37,000  Level FlightAware ADS-B
Wed 07:09:22 AM 39.0330 17.6150 115° Southeast 509 586 37,000  Level FlightAware ADS-B
Wed 07:10:12 AM 38.9830 17.7540 115° Southeast 510 587 37,000  Level FlightAware ADS-B
Wed 07:11:02 AM 38.9370 17.8820 115° Southeast 508 585 37,000  Level FlightAware ADS-B
Wed 07:11:42 AM 38.8960 17.9930 115° Southeast 507 583 37,000  Level FlightAware ADS-B
Wed 07:12:17 AM 38.8580 18.0980 115° Southeast 507 583 37,000  Level FlightAware ADS-B
Wed 07:13:07 AM 38.8080 18.2350 115° Southeast 507 583 37,000  Level FlightAware ADS-B
Wed 07:13:47 AM 38.7700 18.3380 115° Southeast 507 583 37,000  Level FlightAware ADS-B
Wed 07:14:32 AM 38.7190 18.4770 115° Southeast 508 585 37,000  Level FlightAware ADS-B
Wed 07:15:12 AM 38.6810 18.5790 115° Southeast 508 585 37,000  Level FlightAware ADS-B
Wed 07:15:57 AM 38.6400 18.6870 116° Southeast 508 585 37,000  Level FlightAware ADS-B
Wed 07:16:37 AM 38.6000 18.7960 115° Southeast 508 585 37,000  Level FlightAware ADS-B
Wed 07:17:12 AM 38.5630 18.8940 116° Southeast 509 586 37,000  Level FlightAware ADS-B
Wed 07:18:02 AM 38.5190 19.0130 115° Southeast 509 586 37,000  Level FlightAware ADS-B
Wed 07:18:42 AM 38.4850 19.1060 115° Southeast 509 586 37,000  Level FlightAware ADS-B
Wed 07:19:22 AM 38.4540 19.2600 104° East 508 585 37,000  Level FlightAware ADS-B
Wed 07:20:02 AM 38.4250 19.3710 108° East 507 583 37,000  Level FlightAware ADS-B
Wed 07:20:42 AM 38.3950 19.4820 109° East 507 583 37,000  Level FlightAware ADS-B
Wed 07:21:22 AM 38.3640 19.5970 109° East 505 581 37,000  Level FlightAware ADS-B
Wed 07:22:07 AM 38.3290 19.7250 109° East 504 580 37,000  Level FlightAware ADS-B
Wed 07:22:47 AM 38.3000 19.8320 109° East 504 580 37,000  Level FlightAware ADS-B
Wed 07:23:27 AM 38.2690 19.9480 109° East 504 580 37,000  Level FlightAware ADS-B
Wed 07:24:47 AM 38.2080 20.1750 109° East 502 578 37,000  Level FlightAware ADS-B
Wed 07:25:27 AM 38.1820 20.2700 109° East 502 578 37,000  Level FlightAware ADS-B
Wed 07:26:07 AM 38.1560 20.3650 109° East 502 578 37,000  Level FlightAware ADS-B
Wed 07:26:47 AM 38.1310 20.4600 108° East 502 578 37,000  Level FlightAware ADS-B
Wed 07:27:27 AM 38.1050 20.5540 109° East 502 578 37,000  Level FlightAware ADS-B
Wed 07:28:17 AM 38.0730 20.6730 109° East 502 578 37,000  Level FlightAware ADS-B
Wed 07:28:57 AM 38.0470 20.7680 109° East 502 578 37,000  Level FlightAware ADS-B
Wed 07:29:37 AM 38.0210 20.8630 109° East 502 578 37,000  Level FlightAware ADS-B
Wed 07:30:17 AM 37.9960 20.9570 109° East 502 578 37,000  Level FlightAware ADS-B
Wed 07:30:57 AM 37.9700 21.0520 109° East 502 578 37,000  Level FlightAware ADS-B
Wed 07:31:47 AM 37.9380 21.1700 109° East 502 578 37,000  Level FlightAware ADS-B
Wed 07:32:27 AM 37.9120 21.2650 109° East 502 578 37,000  Level FlightAware ADS-B
Wed 07:33:07 AM 37.8860 21.3600 109° East 502 578 37,000  Level FlightAware ADS-B
Wed 07:33:47 AM 37.8610 21.4540 109° East 502 578 37,000  Level FlightAware ADS-B
Wed 07:36:00 AM 37.7312 21.8162 114° Southeast  Level FlightAware Approximate
Wed 07:37:00 AM 37.6723 21.9791 115° Southeast  Level FlightAware Approximate
Wed 07:38:00 AM 37.6132 22.1418 115° Southeast  Level FlightAware Approximate
Wed 07:39:00 AM 37.5538 22.3043 115° Southeast  Level FlightAware Approximate
Wed 07:40:00 AM 37.4943 22.4665 115° Southeast  Level FlightAware Approximate
Wed 07:41:00 AM 37.4345 22.6284 115° Southeast  Level FlightAware Approximate
Wed 07:42:00 AM 37.3745 22.7901 115° Southeast  Level FlightAware Approximate
Wed 07:43:00 AM 37.3143 22.9515 115° Southeast  Level FlightAware Approximate
Wed 07:44:00 AM 37.2538 23.1127 115° Southeast  Level FlightAware Approximate
Wed 07:45:00 AM 37.1931 23.2736 115° Southeast  Level FlightAware Approximate
Wed 07:46:00 AM 37.1322 23.4342 115° Southeast  Level FlightAware Approximate
Wed 07:47:00 AM 37.0711 23.5946 115° Southeast  Level FlightAware Approximate
Wed 07:48:00 AM 37.0098 23.7547 116° Southeast  Level FlightAware Approximate
Wed 07:49:00 AM 36.9483 23.9146 116° Southeast  Level FlightAware Approximate
Wed 07:50:00 AM 36.8865 24.0742 116° Southeast  Level FlightAware Approximate
Wed 07:51:00 AM 36.8246 24.2335 116° Southeast  Level FlightAware Approximate
Wed 07:52:00 AM 36.7624 24.3926 116° Southeast  Level FlightAware Approximate
Wed 07:53:00 AM 36.6998 24.5565 115° Southeast  Level FlightAware Approximate
Wed 07:54:00 AM 36.6399 24.7167 115° Southeast  Level FlightAware Approximate
Wed 07:55:00 AM 36.5798 24.8766 115° Southeast  Level FlightAware Approximate
Wed 07:56:00 AM 36.5194 25.0363 115° Southeast  Level FlightAware Approximate
Wed 07:57:00 AM 36.4588 25.1957 115° Southeast  Level FlightAware Approximate
Wed 07:58:00 AM 36.3980 25.3549 115° Southeast  Level FlightAware Approximate
Wed 07:59:00 AM 36.3370 25.5138 115° Southeast  Level FlightAware Approximate
Wed 08:00:00 AM 36.2750 25.6719 116° Southeast  Level FlightAware Approximate
Wed 08:01:00 AM 36.2124 25.8296 116° Southeast  Level FlightAware Approximate
Wed 08:02:00 AM 36.1495 25.9870 116° Southeast  Level FlightAware Approximate
Wed 08:03:00 AM 36.0864 26.1442 116° Southeast  Level FlightAware Approximate
Wed 08:04:00 AM 36.0232 26.3011 116° Southeast  Level FlightAware Approximate
Wed 08:05:00 AM 35.9597 26.4578 117° Southeast  Level FlightAware Approximate
Wed 08:06:00 AM 35.8960 26.6142 117° Southeast  Level FlightAware Approximate
Wed 08:06:32 AM 35.9150 26.6020 117° Southeast 473 544 37,000  Level FlightAware ADS-B
Wed 08:07:00 AM 35.8321 26.7703 117° Southeast  Level FlightAware Approximate
Wed 08:07:17 AM 35.8710 26.7150 116° Southeast 472 543 37,000  Level FlightAware ADS-B
Wed 08:07:57 AM 35.8340 26.8120 115° Southeast 473 544 37,000  Level FlightAware ADS-B
Wed 08:08:42 AM 35.7930 26.9190 115° Southeast 475 547 37,000  Level FlightAware ADS-B
Wed 08:09:22 AM 35.7570 27.0140 115° Southeast 476 548 37,000  Level FlightAware ADS-B
Wed 08:10:02 AM 35.7250 27.0980 115° Southeast 476 548 37,000  Level FlightAware ADS-B
Wed 08:10:42 AM 35.6930 27.1810 115° Southeast 476 548 37,000  Level FlightAware ADS-B
Wed 08:11:22 AM 35.6620 27.2650 114° Southeast 476 548 37,000  Level FlightAware ADS-B
Wed 08:12:02 AM 35.6300 27.3480 115° Southeast 476 548 37,000  Level FlightAware ADS-B
Wed 08:12:52 AM 35.5900 27.4520 115° Southeast 476 548 37,000  Level FlightAware ADS-B
Wed 08:13:32 AM 35.5590 27.5360 114° Southeast 476 548 37,000  Level FlightAware ADS-B
Wed 08:14:12 AM 35.5270 27.6190 115° Southeast 476 548 37,000  Level FlightAware ADS-B
Wed 08:14:52 AM 35.4960 27.7030 114° Southeast 476 548 37,000  Level FlightAware ADS-B
Wed 08:15:32 AM 35.4640 27.7860 115° Southeast 476 548 37,000  Level FlightAware ADS-B
Wed 08:16:32 AM 35.3340 28.1050 116° Southeast 493 567 37,000  Level FlightAware ADS-B
Wed 08:17:17 AM 35.2880 28.2200 116° Southeast 493 567 37,000  Level FlightAware ADS-B
Wed 08:17:57 AM 35.2490 28.3190 116° Southeast 492 566 37,000  Level FlightAware ADS-B
Wed 08:18:42 AM 35.2040 28.4300 116° Southeast 492 566 37,000  Level FlightAware ADS-B
Wed 08:19:22 AM 35.1640 28.5300 116° Southeast 493 567 37,000  Level FlightAware ADS-B
Wed 08:19:57 AM 35.1310 28.6130 116° Southeast 493 567 37,000  Level FlightAware ADS-B
Wed 08:20:52 AM 35.0810 28.7400 116° Southeast 489 563 37,000  Level FlightAware ADS-B
Wed 08:21:42 AM 35.0250 28.8790 116° Southeast 492 566 37,000  Level FlightAware ADS-B
Wed 08:22:22 AM 34.9840 28.9800 116° Southeast 491 565 37,000  Level FlightAware ADS-B
Wed 08:23:07 AM 34.9380 29.0950 116° Southeast 494 568 37,000  Level FlightAware ADS-B
Wed 08:23:57 AM 34.8920 29.2120 116° Southeast 495 570 37,000  Level FlightAware ADS-B
Wed 08:24:37 AM 34.8590 29.2980 115° Southeast 495 570 37,000  Level FlightAware ADS-B
Wed 08:25:27 AM 34.8060 29.4260 117° Southeast 491 565 37,000  Level FlightAware ADS-B
Wed 08:26:22 AM 34.7450 29.5720 117° Southeast 489 563 37,000  Level FlightAware ADS-B
Wed 08:27:02 AM 34.7030 29.6730 117° Southeast 487 560 37,000  Level FlightAware ADS-B
Wed 08:27:42 AM 34.6620 29.7740 116° Southeast 484 557 37,000  Level FlightAware ADS-B
Wed 08:28:37 AM 34.6110 29.9010 116° Southeast 484 557 37,000  Level FlightAware ADS-B
Wed 08:29:17 AM 34.5790 29.9850 115° Southeast 484 557 37,000  Level FlightAware ADS-B
Wed 08:29:52 AM 34.5210 30.0790 127° Southeast 37,000  Level FlightAware ADS-B
Wed 08:31:37 AM 34.4060 30.3220 120° Southeast 486 559 37,000  Level FlightAware ADS-B
Wed 08:32:27 AM 34.3490 30.4440 119° Southeast 487 560 37,000  Level FlightAware ADS-B
Wed 08:33:12 AM 34.2990 30.5470 120° Southeast 486 559 37,000  Level FlightAware ADS-B
Wed 08:33:52 AM 34.2510 30.6460 120° Southeast 486 559 37,000  Level FlightAware ADS-B
Wed 08:34:37 AM 34.2000 30.7510 120° Southeast 487 560 37,000  Level FlightAware ADS-B
Wed 08:35:17 AM 34.1540 30.8460 120° Southeast 487 560 37,000  Level FlightAware ADS-B
Wed 08:36:07 AM 34.0990 30.9640 119° Southeast 489 563 37,000  Level FlightAware ADS-B
Wed 08:36:57 AM 34.0370 31.0880 121° Southeast 492 566 37,000  Level FlightAware ADS-B
Wed 08:37:37 AM 33.9930 31.1800 120° Southeast 492 566 37,000  Level FlightAware ADS-B
Wed 08:38:17 AM 33.9470 31.2750 120° Southeast 493 567 37,000  Level FlightAware ADS-B
Wed 08:39:02 AM 33.8920 31.3890 120° Southeast 492 566 37,000  Level FlightAware ADS-B
Wed 08:39:37 AM 33.8540 31.4680 120° Southeast 493 567 37,000  Level FlightAware ADS-B
Wed 08:40:22 AM 33.8010 31.5770 120° Southeast 493 567 37,000  Level FlightAware ADS-B
Wed 08:41:07 AM 33.7470 31.6860 121° Southeast 493 567 37,000  Level FlightAware ADS-B
Wed 08:41:47 AM 33.7000 31.7830 120° Southeast 493 567 37,000  Level FlightAware ADS-B
Wed 08:42:32 AM 33.6490 31.8870 120° Southeast 495 570 37,000  Level FlightAware ADS-B
Wed 08:43:12 AM 33.6030 31.9810 120° Southeast 496 571 37,000  Level FlightAware ADS-B
Wed 08:44:52 AM 33.4890 32.2140 120° Southeast 496 571 37,000  Level FlightAware ADS-B
Wed 08:45:32 AM 33.4410 32.3110 121° Southeast 502 578 37,000  Level FlightAware ADS-B
Wed 08:46:07 AM 33.4010 32.3920 121° Southeast 503 579 37,000  Level FlightAware ADS-B
Wed 08:47:12 AM 33.3190 32.5520 121° Southeast 508 585 37,000  Level FlightAware ADS-B
Wed 08:47:52 AM 33.2690 32.6520 121° Southeast 510 587 37,000  Level FlightAware ADS-B
Wed 08:48:32 AM 33.2200 32.7480 121° Southeast 511 588 37,000  Level FlightAware ADS-B
Wed 08:49:17 AM 33.1630 32.8600 121° Southeast 513 590 37,000  Level FlightAware ADS-B
Wed 08:49:57 AM 33.1150 32.9530 122° Southeast 513 590 37,000  Level FlightAware ADS-B
Wed 08:50:42 AM 33.0600 33.0620 121° Southeast 515 593 37,000 -141 Level FlightAware ADS-B
Wed 08:51:22 AM 33.0070 33.1650 122° Southeast 510 587 36,800 -800 Descending FlightAware ADS-B
Wed 08:52:12 AM 32.9500 33.2770 121° Southeast 507 583 35,800 -3,032 Descending FlightAware ADS-B
Wed 08:52:57 AM 32.8950 33.3820 122° Southeast 513 590 32,000 -4,333 Descending FlightAware ADS-B
Wed 08:53:42 AM 32.8340 33.4990 122° Southeast 492 566 29,300 -3,741 Descending FlightAware ADS-B
Wed 08:54:22 AM 32.7890 33.5860 122° Southeast 477 549 26,700 -4,050 Descending FlightAware ADS-B
Wed 08:55:02 AM 32.7410 33.6770 122° Southeast 465 535 23,900 -4,165 Descending FlightAware ADS-B
Wed 08:55:47 AM 32.6920 33.7720 121° Southeast 455 524 20,800 -4,165 Descending FlightAware ADS-B
Wed 08:56:27 AM 32.6480 33.8540 122° Southeast 438 504 18,000 -4,125 Descending FlightAware ADS-B
Wed 08:57:07 AM 32.6080 33.9320 121° Southeast 420 483 15,300 -3,660 Descending FlightAware ADS-B
Wed 08:58:07 AM 32.5490 34.0460 122° Southeast 406 467 11,900 -2,700 Descending FlightAware ADS-B
Wed 08:58:47 AM 32.5100 34.1200 122° Southeast 379 436 10,800 -1,846 Descending FlightAware ADS-B
Wed 08:59:12 AM 32.4840 34.1650 124° Southeast 369 425 9,900 -1,900 Descending FlightAware ADS-B
Wed 08:59:47 AM 32.4430 34.2170 133° Southeast 352 405 8,900 -1,527 Descending FlightAware ADS-B
Wed 09:00:07 AM 32.4230 34.2420 133° Southeast 341 392 8,500 -655 Descending FlightAware ADS-B
Wed 09:00:42 AM 32.3860 34.2840 136° Southeast 335 386 8,300 -218 Descending FlightAware ADS-B
Wed 09:01:02 AM 32.3680 34.3060 134° Southeast 335 386 8,300  Level FlightAware ADS-B
Wed 09:01:22 AM 32.3490 34.3280 136° Southeast 335 386 8,300 -2,400 Level FlightAware ADS-B
Wed 09:01:52 AM 32.3160 34.3670 135° Southeast 277 319 6,300 -2,727 Descending FlightAware ADS-B
Wed 09:02:17 AM 32.2940 34.3930 135° Southeast 275 316 5,800 -1,200 Descending FlightAware ADS-B
Wed 09:02:47 AM 32.2640 34.4270 136° Southeast 275 316 5,200 -1,050 Descending FlightAware ADS-B
Wed 09:02:57 AM 32.2580 34.4340 135° Southeast 276 318 5,100 -120 Descending FlightAware ADS-B
Wed 09:03:37 AM 32.2220 34.4760 135° Southeast 274 315 5,100  Level FlightAware ADS-B
Wed 09:06:00 AM 32.0360 34.8067 125° Southeast  Level FlightAware Approximate
Wed 09:07:00 AM 32.0000 34.8667 125° Southeast  Level FlightAware Approximate
Wed 09:08:00 AM 32.0095 34.8769 125° Southeast  Level Estimated
Wed 09:09:00 AM 32.0095 34.8769 125° Southeast  Level Estimated
Wed 09:10:00 AM 32.0095 34.8769 125° Southeast  Level Estimated
Wed 09:11:00 AM 32.0095 34.8769 125° Southeast  Level Estimated
Wed 09:12:00 AM 32.0095 34.8769 125° Southeast  Level Estimated
Wed 09:13:00 AM 32.0095 34.8769 125° Southeast  Level Estimated

Login

Don't have an account? Register now (free) for customized features, flight alerts, and more!